createdAt,value
2023-04-21T00:00:12.311Z,9.32
2023-04-21T00:02:40.158Z,9.29
2023-04-21T00:05:10.704Z,9.26
2023-04-21T00:07:39.335Z,9.26
2023-04-21T00:10:11.756Z,9.25
2023-04-21T00:12:39.352Z,9.25
2023-04-21T00:15:07.797Z,9.29
2023-04-21T00:17:35.631Z,9.31
2023-04-21T00:20:04.852Z,9.28
2023-04-21T00:22:32.364Z,9.28
2023-04-21T00:24:59.885Z,9.29
2023-04-21T00:27:27.362Z,9.30
2023-04-21T00:29:54.857Z,9.32
2023-04-21T00:32:22.346Z,9.31
2023-04-21T00:34:51.205Z,9.30
2023-04-21T00:37:18.943Z,9.28
2023-04-21T00:39:46.465Z,9.28
2023-04-21T00:42:17.230Z,9.29
2023-04-21T00:44:44.828Z,9.30
2023-04-21T00:47:12.427Z,9.27
2023-04-21T00:49:40.172Z,9.25
2023-04-21T00:52:08.682Z,9.22
2023-04-21T00:54:36.898Z,9.21
2023-04-21T00:57:05.009Z,9.23
2023-04-21T00:59:32.481Z,9.26
2023-04-21T01:02:00.109Z,9.27
2023-04-21T01:04:29.232Z,9.26
2023-04-21T01:06:58.964Z,9.25
2023-04-21T01:09:27.529Z,9.25
2023-04-21T01:12:10.587Z,9.25
2023-04-21T01:14:40.405Z,9.26
2023-04-21T01:17:08.654Z,9.22
2023-04-21T01:19:41.727Z,9.18
2023-04-21T01:22:13.584Z,9.19
2023-04-21T01:24:47.370Z,9.15
2023-04-21T01:27:18.927Z,9.16
2023-04-21T01:29:51.701Z,9.11
2023-04-21T01:32:23.210Z,9.09
2023-04-21T01:34:54.606Z,9.02
2023-04-21T01:37:26.005Z,9.00
2023-04-21T01:39:56.374Z,8.94
2023-04-21T01:42:26.872Z,8.92
2023-04-21T01:44:54.986Z,8.91
2023-04-21T01:47:24.610Z,8.88
2023-04-21T01:49:53.048Z,8.80
2023-04-21T01:52:21.405Z,8.78
2023-04-21T01:54:49.197Z,8.79
2023-04-21T01:57:17.741Z,8.79
2023-04-21T01:59:45.664Z,8.78
2023-04-21T02:02:13.394Z,8.78
2023-04-21T02:04:41.118Z,8.78
2023-04-21T02:07:08.931Z,8.80
2023-04-21T02:09:36.624Z,8.81
2023-04-21T02:12:04.458Z,8.80
2023-04-21T02:14:32.078Z,8.78
2023-04-21T02:17:00.126Z,8.75
2023-04-21T02:19:28.888Z,8.73
2023-04-21T02:21:56.604Z,8.67
2023-04-21T02:24:24.143Z,8.63
2023-04-21T02:26:53.882Z,8.60
2023-04-21T02:29:21.745Z,8.55
2023-04-21T02:32:00.635Z,8.50
2023-04-21T02:34:33.011Z,8.48
2023-04-21T02:37:00.880Z,8.46
2023-04-21T02:39:28.511Z,8.47
2023-04-21T02:41:56.358Z,8.45
2023-04-21T02:44:23.872Z,8.43
2023-04-21T02:46:51.452Z,8.39
2023-04-21T02:49:19.074Z,8.34
2023-04-21T02:51:46.691Z,8.27
2023-04-21T02:54:14.167Z,8.22
2023-04-21T02:56:42.343Z,8.21
2023-04-21T02:59:11.370Z,8.19
2023-04-21T03:01:40.572Z,8.21
2023-04-21T03:04:09.451Z,8.20
2023-04-21T03:06:39.003Z,8.18
2023-04-21T03:09:06.679Z,8.16
2023-04-21T03:11:34.393Z,8.16
2023-04-21T03:14:01.925Z,8.17
2023-04-21T03:16:29.540Z,8.16
2023-04-21T03:18:57.149Z,8.17
2023-04-21T03:21:24.865Z,8.17
2023-04-21T03:23:53.128Z,8.16
2023-04-21T03:26:21.253Z,8.07
2023-04-21T03:28:49.382Z,8.03
2023-04-21T03:31:16.868Z,7.95
2023-04-21T03:33:44.354Z,7.95
2023-04-21T03:36:11.871Z,7.94
2023-04-21T03:38:40.046Z,7.96
2023-04-21T03:41:07.544Z,7.99
2023-04-21T03:43:36.142Z,7.97
2023-04-21T03:46:04.336Z,7.93
2023-04-21T03:48:31.991Z,7.88
2023-04-21T03:50:59.586Z,7.92
2023-04-21T03:53:27.087Z,7.89
2023-04-21T03:55:54.593Z,7.88
2023-04-21T03:58:22.093Z,7.91
2023-04-21T04:00:49.564Z,7.91
2023-04-21T04:03:17.482Z,7.89
2023-04-21T04:05:45.896Z,7.89
2023-04-21T04:08:13.736Z,7.90
2023-04-21T04:10:41.214Z,7.91
2023-04-21T04:13:08.799Z,7.89
2023-04-21T04:15:36.318Z,7.87
2023-04-21T04:18:04.218Z,7.91
2023-04-21T04:20:31.755Z,7.96
2023-04-21T04:22:59.301Z,7.99
2023-04-21T04:25:27.016Z,8.00
2023-04-21T04:27:55.566Z,7.95
2023-04-21T04:30:24.010Z,7.94
2023-04-21T04:32:52.908Z,7.96
2023-04-21T04:35:20.667Z,8.00
2023-04-21T04:37:48.529Z,8.03
2023-04-21T04:40:16.832Z,8.05
2023-04-21T04:42:46.881Z,8.09
2023-04-21T04:45:14.577Z,8.14
2023-04-21T04:47:42.397Z,8.18
2023-04-21T04:50:10.037Z,8.21
2023-04-21T04:52:37.532Z,8.22
2023-04-21T04:55:05.985Z,8.24
2023-04-21T04:57:33.504Z,8.26
2023-04-21T05:00:01.034Z,8.29
2023-04-21T05:02:28.648Z,8.29
2023-04-21T05:04:56.378Z,8.32
2023-04-21T05:07:23.916Z,8.36
2023-04-21T05:09:51.433Z,8.41
2023-04-21T05:12:18.948Z,8.47
2023-04-21T05:14:46.444Z,8.49
2023-04-21T05:17:13.924Z,8.52
2023-04-21T05:19:41.425Z,8.55
2023-04-21T05:22:08.911Z,8.59
2023-04-21T05:24:36.555Z,8.57
2023-04-21T05:27:04.098Z,8.61
2023-04-21T05:29:31.555Z,8.65
2023-04-21T05:31:59.070Z,8.69
2023-04-21T05:34:26.651Z,8.70
2023-04-21T05:36:54.150Z,8.71
2023-04-21T05:39:22.183Z,8.67
2023-04-21T05:41:49.769Z,8.68
2023-04-21T05:44:18.279Z,8.66
2023-04-21T05:46:46.045Z,8.74
2023-04-21T05:49:13.589Z,8.83
2023-04-21T05:51:41.277Z,8.92
2023-04-21T05:54:08.740Z,8.99
2023-04-21T05:56:36.274Z,9.06
2023-04-21T05:59:03.934Z,9.11
2023-04-21T06:01:31.486Z,9.17
2023-04-21T06:03:59.301Z,9.23
2023-04-21T06:06:28.022Z,9.25
2023-04-21T06:08:55.504Z,9.27
2023-04-21T06:11:23.936Z,9.25
2023-04-21T06:13:53.597Z,9.25
2023-04-21T06:16:21.135Z,9.25
2023-04-21T06:18:48.732Z,9.28
2023-04-21T06:21:16.283Z,9.31
2023-04-21T06:23:43.758Z,9.33
2023-04-21T06:26:11.630Z,9.37
2023-04-21T06:28:39.448Z,9.40
2023-04-21T06:31:09.005Z,9.43
2023-04-21T06:33:37.007Z,9.48
2023-04-21T06:36:05.038Z,9.56
2023-04-21T06:38:32.590Z,9.62
2023-04-21T06:41:00.411Z,9.70
2023-04-21T06:43:27.868Z,9.77
2023-04-21T06:45:55.463Z,9.82
2023-04-21T06:48:24.339Z,9.91
2023-04-21T06:50:52.187Z,9.98
2023-04-21T06:53:21.521Z,10.06
2023-04-21T06:55:49.417Z,10.14
2023-04-21T06:58:17.952Z,10.20
2023-04-21T07:00:46.675Z,10.26
2023-04-21T07:03:14.312Z,10.33
2023-04-21T07:05:41.967Z,10.39
2023-04-21T07:08:09.470Z,10.49
2023-04-21T07:10:37.015Z,10.64
2023-04-21T07:13:04.744Z,10.78
2023-04-21T07:15:32.323Z,10.89
2023-04-21T07:18:00.109Z,10.98
2023-04-21T07:20:27.717Z,11.07
2023-04-21T07:23:04.863Z,11.12
2023-04-21T07:25:32.499Z,11.12
2023-04-21T07:27:59.985Z,11.09
2023-04-21T07:30:27.612Z,11.03
2023-04-21T07:32:55.793Z,10.95
2023-04-21T07:35:24.042Z,10.90
2023-04-21T07:37:51.570Z,10.85
2023-04-21T07:40:19.078Z,10.80
2023-04-21T07:42:46.623Z,10.76
2023-04-21T07:45:14.146Z,10.73
2023-04-21T07:47:41.747Z,10.71
2023-04-21T07:50:10.346Z,10.69
2023-04-21T07:52:37.870Z,10.69
2023-04-21T07:55:06.305Z,10.67
2023-04-21T07:57:38.212Z,10.67
2023-04-21T08:00:07.305Z,10.68
2023-04-21T08:02:39.682Z,10.74
2023-04-21T08:05:07.881Z,10.73
2023-04-21T08:07:35.838Z,10.70
2023-04-21T08:10:04.094Z,10.71
2023-04-21T08:12:31.644Z,10.71
2023-04-21T08:14:59.201Z,10.72
2023-04-21T08:17:26.799Z,10.75
2023-04-21T08:19:54.364Z,10.80
2023-04-21T08:22:22.885Z,10.85
2023-04-21T08:24:50.431Z,10.93
2023-04-21T08:27:17.955Z,10.99
2023-04-21T08:29:45.480Z,11.07
2023-04-21T08:32:13.194Z,11.13
2023-04-21T08:34:41.019Z,11.20
2023-04-21T08:37:08.576Z,11.26
2023-04-21T08:39:36.116Z,11.32
2023-04-21T08:42:04.773Z,11.36
2023-04-21T08:44:32.344Z,11.44
2023-04-21T08:47:01.191Z,11.49
2023-04-21T08:49:31.593Z,11.54
2023-04-21T08:52:00.975Z,11.60
2023-04-21T08:54:29.995Z,11.64
2023-04-21T08:57:07.919Z,11.71
2023-04-21T08:59:39.502Z,11.80
2023-04-21T09:02:15.466Z,11.83
2023-04-21T09:04:47.206Z,11.90
2023-04-21T09:07:39.382Z,11.97
2023-04-21T09:10:07.788Z,12.06
2023-04-21T09:12:35.343Z,12.11
2023-04-21T09:15:09.911Z,12.18
2023-04-21T09:17:38.611Z,12.27
2023-04-21T09:20:21.482Z,12.34
2023-04-21T09:22:51.105Z,12.39
2023-04-21T09:25:22.588Z,12.43
2023-04-21T09:27:50.147Z,12.46
2023-04-21T09:30:20.700Z,12.53
2023-04-21T09:32:48.349Z,12.59
2023-04-21T09:35:15.966Z,12.65
2023-04-21T09:37:44.455Z,12.70
2023-04-21T09:40:17.506Z,12.76
2023-04-21T09:42:45.873Z,12.80
2023-04-21T09:45:32.994Z,12.88
2023-04-21T09:48:08.896Z,12.95
2023-04-21T09:53:17.046Z,13.04
2023-04-21T09:55:49.227Z,13.06
2023-04-21T09:58:24.336Z,13.11
2023-04-21T10:00:54.377Z,13.15
2023-04-21T10:03:27.035Z,13.22
2023-04-21T10:05:55.041Z,13.25
2023-04-21T10:08:22.989Z,13.31
2023-04-21T10:10:52.810Z,13.38
2023-04-21T10:13:21.604Z,13.42
2023-04-21T10:15:49.109Z,13.47
2023-04-21T10:18:23.032Z,13.53
2023-04-21T10:20:57.837Z,13.66
2023-04-21T10:23:46.605Z,13.68
2023-04-21T10:26:36.087Z,13.72
2023-04-21T10:29:07.684Z,13.80
2023-04-21T10:31:55.063Z,13.84
2023-04-21T10:34:37.423Z,13.90
2023-04-21T10:37:04.889Z,13.95
2023-04-21T10:39:45.217Z,14.04
2023-04-21T10:42:15.703Z,14.11
2023-04-21T10:44:44.620Z,14.18
2023-04-21T10:47:12.217Z,14.24
2023-04-21T10:49:40.932Z,14.28
2023-04-21T10:52:10.792Z,14.34
2023-04-21T10:54:47.314Z,14.40
2023-04-21T10:57:18.630Z,14.47
2023-04-21T10:59:47.903Z,14.55
2023-04-21T11:02:18.543Z,14.62
2023-04-21T11:04:52.429Z,14.69
2023-04-21T11:07:26.746Z,14.76
2023-04-21T11:10:03.042Z,14.83
2023-04-21T11:12:34.608Z,14.89
2023-04-21T11:15:07.403Z,14.96
2023-04-21T11:17:36.941Z,15.03
2023-04-21T11:20:06.890Z,15.07
2023-04-21T11:22:37.084Z,15.10
2023-04-21T11:25:05.372Z,15.19
2023-04-21T11:27:32.896Z,15.26
2023-04-21T11:30:04.093Z,15.31
2023-04-21T11:32:31.770Z,15.40
2023-04-21T11:34:59.974Z,15.44
2023-04-21T11:37:28.031Z,15.55
2023-04-21T11:40:00.717Z,15.62
2023-04-21T11:42:28.972Z,15.71
2023-04-21T11:44:57.492Z,15.85
2023-04-21T11:47:27.639Z,15.94
2023-04-21T11:49:58.102Z,16.02
2023-04-21T11:52:35.495Z,16.05
2023-04-21T11:55:18.578Z,16.15
2023-04-21T11:57:46.319Z,16.28
2023-04-21T12:00:15.377Z,16.36
2023-04-21T12:02:44.352Z,16.43
2023-04-21T12:05:13.658Z,16.52
2023-04-21T12:08:14.451Z,16.62
2023-04-21T12:10:46.492Z,16.74
2023-04-21T12:13:18.919Z,16.83
2023-04-21T12:15:46.404Z,16.94
2023-04-21T12:18:14.413Z,17.04
2023-04-21T12:20:52.922Z,17.16
2023-04-21T12:23:20.461Z,17.27
2023-04-21T12:25:48.023Z,17.34
2023-04-21T12:28:17.390Z,17.43
2023-04-21T12:30:45.352Z,17.54
2023-04-21T12:33:13.080Z,17.64
2023-04-21T12:35:40.852Z,17.73
2023-04-21T12:38:08.369Z,17.84
2023-04-21T12:40:35.877Z,17.92
2023-04-21T12:43:03.409Z,18.05
2023-04-21T12:45:33.177Z,18.13
2023-04-21T12:48:01.040Z,18.25
2023-04-21T12:50:28.580Z,18.36
2023-04-21T12:52:56.063Z,18.46
2023-04-21T12:55:23.879Z,18.49
2023-04-21T12:57:52.700Z,18.60
2023-04-21T13:00:20.536Z,18.75
2023-04-21T13:02:48.092Z,18.90
2023-04-21T13:05:15.942Z,19.01
2023-04-21T13:07:43.485Z,19.18
2023-04-21T13:10:11.500Z,19.32
2023-04-21T13:12:39.002Z,19.48
2023-04-21T13:15:07.373Z,19.58
2023-04-21T13:17:34.951Z,19.68
2023-04-21T13:20:02.700Z,19.78
2023-04-21T13:22:30.196Z,19.88
2023-04-21T13:24:57.919Z,19.94
2023-04-21T13:27:25.498Z,20.05
2023-04-21T13:29:54.209Z,20.16
2023-04-21T13:32:21.838Z,20.33
2023-04-21T13:34:49.359Z,20.45
2023-04-21T13:37:17.020Z,20.58
2023-04-21T13:39:44.564Z,20.64
2023-04-21T13:42:12.083Z,20.75
2023-04-21T13:44:39.619Z,20.85
2023-04-21T13:47:08.946Z,20.98
2023-04-21T13:49:36.714Z,21.13
2023-04-21T13:52:04.300Z,21.27
2023-04-21T13:54:32.024Z,21.41
2023-04-21T13:56:59.933Z,21.57
2023-04-21T13:59:28.236Z,21.67
2023-04-21T14:01:55.753Z,21.80
2023-04-21T14:04:23.678Z,21.91
2023-04-21T14:06:51.497Z,22.03
2023-04-21T14:09:19.153Z,22.18
2023-04-21T14:11:47.080Z,22.32
2023-04-21T14:14:18.902Z,22.50
2023-04-21T14:16:52.141Z,22.65
2023-04-21T14:19:19.648Z,22.79
2023-04-21T14:21:47.147Z,22.92
2023-04-21T14:24:14.676Z,23.04
2023-04-21T14:26:42.502Z,23.15
2023-04-21T14:29:10.135Z,23.22
2023-04-21T14:31:37.757Z,23.34
2023-04-21T14:34:05.558Z,23.47
2023-04-21T14:36:33.056Z,23.58
2023-04-21T14:39:00.596Z,23.66
2023-04-21T14:41:28.107Z,23.76
2023-04-21T14:43:57.620Z,23.85
2023-04-21T14:46:25.620Z,23.89
2023-04-21T14:48:53.879Z,24.03
2023-04-21T14:51:21.590Z,24.09
2023-04-21T14:53:49.151Z,24.13
2023-04-21T14:56:16.779Z,24.26
2023-04-21T14:58:44.249Z,24.38
2023-04-21T15:01:12.609Z,24.46
2023-04-21T15:03:40.517Z,24.61
2023-04-21T15:06:08.345Z,24.63
2023-04-21T15:08:35.928Z,24.76
2023-04-21T15:11:05.096Z,24.88
2023-04-21T15:13:33.005Z,24.97
2023-04-21T15:16:01.160Z,25.04
2023-04-21T15:18:28.632Z,25.09
2023-04-21T15:20:56.150Z,24.83
2023-04-21T15:23:23.667Z,24.62
2023-04-21T15:25:51.226Z,24.39
2023-04-21T15:28:18.709Z,24.12
2023-04-21T15:30:46.342Z,23.84
2023-04-21T15:33:13.929Z,23.57
2023-04-21T15:35:41.405Z,23.30
2023-04-21T15:38:08.955Z,23.05
2023-04-21T15:40:46.368Z,22.84
2023-04-21T15:43:22.006Z,22.64
2023-04-21T15:45:50.750Z,22.46
2023-04-21T15:48:20.249Z,22.30
2023-04-21T15:50:48.845Z,22.18
2023-04-21T15:53:19.372Z,22.09
2023-04-21T15:55:47.525Z,21.99
2023-04-21T15:58:15.148Z,21.90
2023-04-21T16:00:42.756Z,21.80
2023-04-21T16:03:10.478Z,21.71
2023-04-21T16:05:38.370Z,21.65
2023-04-21T16:08:06.117Z,21.58
2023-04-21T16:10:33.988Z,21.52
2023-04-21T16:13:01.554Z,21.48
2023-04-21T16:15:29.482Z,21.41
2023-04-21T16:17:57.277Z,21.39
2023-04-21T16:20:25.255Z,21.35
2023-04-21T16:22:52.808Z,21.34
2023-04-21T16:25:20.405Z,21.34
2023-04-21T16:27:47.997Z,21.32
2023-04-21T16:30:16.137Z,21.32
2023-04-21T16:32:43.629Z,21.31
2023-04-21T16:35:11.403Z,21.30
2023-04-21T16:37:40.422Z,21.29
2023-04-21T16:40:09.787Z,21.23
2023-04-21T16:42:38.404Z,21.17
2023-04-21T16:45:07.014Z,21.12
2023-04-21T16:47:42.105Z,21.07
2023-04-21T16:50:10.444Z,21.02
2023-04-21T16:52:38.111Z,20.98
2023-04-21T16:55:06.123Z,20.94
2023-04-21T16:57:34.149Z,20.84
2023-04-21T17:00:04.455Z,20.76
2023-04-21T17:02:32.102Z,20.70
2023-04-21T17:04:59.987Z,20.64
2023-04-21T17:07:28.086Z,20.61
2023-04-21T17:09:55.627Z,20.59
2023-04-21T17:12:23.168Z,20.55
2023-04-21T17:14:50.783Z,20.52
2023-04-21T17:17:18.544Z,20.46
2023-04-21T17:19:46.069Z,20.43
2023-04-21T17:22:13.546Z,20.39
2023-04-21T17:24:52.669Z,20.33
2023-04-21T17:27:21.583Z,20.30
2023-04-21T17:29:49.094Z,20.23
2023-04-21T17:32:16.998Z,19.86
2023-04-21T17:34:44.747Z,19.06
2023-04-21T17:37:12.311Z,18.53
2023-04-21T17:39:39.808Z,18.08
2023-04-21T17:42:07.354Z,17.86
2023-04-21T17:44:35.131Z,17.78
2023-04-21T17:47:08.088Z,17.53
2023-04-21T17:49:36.817Z,17.34
2023-04-21T17:52:05.573Z,17.29
2023-04-21T17:54:33.146Z,17.32
2023-04-21T17:57:01.821Z,17.38
2023-04-21T17:59:29.340Z,17.40
2023-04-21T18:01:58.793Z,17.47
2023-04-21T18:04:27.245Z,17.52
2023-04-21T18:06:54.895Z,17.55
2023-04-21T18:09:22.569Z,17.55
2023-04-21T18:11:50.077Z,17.59
2023-04-21T18:14:17.917Z,17.55
2023-04-21T18:16:45.431Z,17.52
2023-04-21T18:19:12.940Z,17.50
2023-04-21T18:21:40.712Z,17.49
2023-04-21T18:24:08.191Z,17.51
2023-04-21T18:26:35.997Z,17.49
2023-04-21T18:29:03.572Z,17.48
2023-04-21T18:31:31.691Z,17.47
2023-04-21T18:34:00.638Z,17.43
2023-04-21T18:36:30.738Z,17.40
2023-04-21T18:39:00.120Z,17.35
2023-04-21T18:41:28.090Z,17.25
2023-04-21T18:43:55.776Z,17.19
2023-04-21T18:46:23.354Z,17.11
2023-04-21T18:48:51.184Z,17.03
2023-04-21T18:51:18.785Z,16.99
2023-04-21T18:53:46.593Z,16.96
2023-04-21T18:56:17.027Z,16.94
2023-04-21T18:58:44.516Z,16.92
2023-04-21T19:01:12.091Z,16.87
2023-04-21T19:03:39.822Z,16.82
2023-04-21T19:06:07.426Z,16.73
2023-04-21T19:08:41.962Z,16.69
2023-04-21T19:11:13.943Z,16.65
2023-04-21T19:13:41.645Z,16.60
2023-04-21T19:16:11.710Z,16.52
2023-04-21T19:18:39.336Z,16.46
2023-04-21T19:21:13.267Z,16.41
2023-04-21T19:23:41.586Z,16.38
2023-04-21T19:26:09.868Z,16.35
2023-04-21T19:28:41.348Z,16.28
2023-04-21T19:31:09.595Z,16.26
2023-04-21T19:33:37.182Z,16.24
2023-04-21T19:36:04.903Z,16.23
2023-04-21T19:38:33.520Z,16.21
2023-04-21T19:41:01.161Z,16.16
2023-04-21T19:43:28.644Z,16.19
2023-04-21T19:45:56.700Z,16.20
2023-04-21T19:48:24.549Z,16.23
2023-04-21T19:50:52.240Z,16.23
2023-04-21T19:53:19.813Z,16.25
2023-04-21T19:55:48.960Z,16.26
2023-04-21T19:58:28.267Z,16.25
2023-04-21T20:01:04.848Z,16.31
2023-04-21T20:03:33.183Z,16.33
2023-04-21T20:06:01.656Z,16.36
2023-04-21T20:08:29.763Z,16.39
2023-04-21T20:10:57.392Z,16.42
2023-04-21T20:13:24.936Z,16.45
2023-04-21T20:15:53.551Z,16.48
2023-04-21T20:18:21.736Z,16.50
2023-04-21T20:20:49.321Z,16.54
2023-04-21T20:23:16.928Z,16.58
2023-04-21T20:25:44.464Z,16.61
2023-04-21T20:28:12.568Z,16.66
2023-04-21T20:30:40.202Z,16.67
2023-04-21T20:33:10.034Z,16.69
2023-04-21T20:35:39.497Z,16.69
2023-04-21T20:38:07.845Z,16.67
2023-04-21T20:40:36.088Z,16.65
2023-04-21T20:43:06.151Z,16.66
2023-04-21T20:45:34.476Z,16.68
2023-04-21T20:48:02.000Z,16.70
2023-04-21T20:50:29.545Z,16.70
2023-04-21T20:52:57.025Z,16.73
2023-04-21T20:55:24.645Z,16.74
2023-04-21T20:57:52.112Z,16.74
2023-04-21T21:00:19.747Z,16.75
2023-04-21T21:02:47.328Z,16.75
2023-04-21T21:05:15.052Z,16.74
2023-04-21T21:07:42.622Z,16.74
2023-04-21T21:10:11.370Z,16.72
2023-04-21T21:12:38.965Z,16.73
2023-04-21T21:15:07.742Z,16.71
2023-04-21T21:17:35.577Z,16.70
2023-04-21T21:20:03.310Z,16.70
2023-04-21T21:22:30.811Z,16.69
2023-04-21T21:24:58.289Z,16.67
2023-04-21T21:27:25.813Z,16.66
2023-04-21T21:29:53.303Z,16.62
2023-04-21T21:32:20.994Z,16.61
2023-04-21T21:34:49.521Z,16.58
2023-04-21T21:37:17.015Z,16.58
2023-04-21T21:39:44.544Z,16.57
2023-04-21T21:42:12.076Z,16.57
2023-04-21T21:44:39.594Z,16.57
2023-04-21T21:47:07.352Z,16.54
2023-04-21T21:49:34.927Z,16.48
2023-04-21T21:52:02.542Z,16.45
2023-04-21T21:54:30.795Z,16.43
2023-04-21T21:56:58.808Z,16.37
2023-04-21T21:59:26.491Z,16.33
2023-04-21T22:01:54.165Z,16.27
2023-04-21T22:04:21.801Z,16.27
2023-04-21T22:06:49.414Z,16.22
2023-04-21T22:09:16.882Z,16.18
2023-04-21T22:11:46.122Z,16.17
2023-04-21T22:14:22.863Z,16.16
2023-04-21T22:16:52.312Z,16.17
2023-04-21T22:19:20.196Z,16.18
2023-04-21T22:21:48.218Z,16.18
2023-04-21T22:24:15.784Z,16.21
2023-04-21T22:26:44.288Z,16.21
2023-04-21T22:29:11.978Z,16.21
2023-04-21T22:31:39.592Z,16.17
2023-04-21T22:34:07.108Z,16.12
2023-04-21T22:36:34.600Z,16.08
2023-04-21T22:39:02.185Z,16.04
2023-04-21T22:41:29.714Z,16.00
2023-04-21T22:43:57.208Z,15.97
2023-04-21T22:46:24.816Z,15.93
2023-04-21T22:48:54.279Z,15.92
2023-04-21T22:51:23.067Z,15.86
2023-04-21T22:53:50.625Z,15.84
2023-04-21T22:56:18.191Z,15.80
2023-04-21T22:58:45.764Z,15.77
2023-04-21T23:01:13.776Z,15.73
2023-04-21T23:03:41.416Z,15.70
2023-04-21T23:06:09.231Z,15.69
2023-04-21T23:08:36.887Z,15.67
2023-04-21T23:11:04.548Z,15.64
2023-04-21T23:13:35.040Z,15.61
2023-04-21T23:16:02.565Z,15.59
2023-04-21T23:18:30.352Z,15.58
2023-04-21T23:20:58.569Z,15.56
2023-04-21T23:23:26.118Z,15.51
2023-04-21T23:25:53.730Z,15.45
2023-04-21T23:28:21.564Z,15.42
2023-04-21T23:30:49.102Z,15.42
2023-04-21T23:33:16.947Z,15.39
2023-04-21T23:35:44.523Z,15.36
2023-04-21T23:38:12.055Z,15.36
2023-04-21T23:40:39.597Z,15.33
2023-04-21T23:43:07.557Z,15.33
2023-04-21T23:45:35.148Z,15.33
2023-04-21T23:48:02.659Z,15.33
2023-04-21T23:50:30.427Z,15.30
2023-04-21T23:52:57.913Z,15.27
2023-04-21T23:55:25.961Z,15.24
2023-04-21T23:57:53.437Z,15.25
